sensor_id;sensor_type;location;lat;lon;timestamp;P1;durP1;ratioP1;P2;durP2;ratioP2
10122;SDS011;5101;49.038;8.710;2023-12-28T00:01:22;14.27;;;11.10;;
10122;SDS011;5101;49.038;8.710;2023-12-28T00:03:48;15.17;;;11.17;;
10122;SDS011;5101;49.038;8.710;2023-12-28T00:06:14;16.50;;;11.27;;
10122;SDS011;5101;49.038;8.710;2023-12-28T00:08:40;13.33;;;10.13;;
10122;SDS011;5101;49.038;8.710;2023-12-28T00:11:05;14.13;;;10.40;;
10122;SDS011;5101;49.038;8.710;2023-12-28T00:13:31;16.67;;;10.57;;
10122;SDS011;5101;49.038;8.710;2023-12-28T00:15:56;14.80;;;10.53;;
10122;SDS011;5101;49.038;8.710;2023-12-28T00:18:22;14.67;;;10.77;;
10122;SDS011;5101;49.038;8.710;2023-12-28T00:20:47;13.30;;;10.00;;
10122;SDS011;5101;49.038;8.710;2023-12-28T00:23:13;13.27;;;10.50;;
10122;SDS011;5101;49.038;8.710;2023-12-28T00:25:38;15.53;;;10.73;;
10122;SDS011;5101;49.038;8.710;2023-12-28T00:28:04;17.40;;;11.40;;
10122;SDS011;5101;49.038;8.710;2023-12-28T00:30:30;15.87;;;11.13;;
10122;SDS011;5101;49.038;8.710;2023-12-28T00:32:57;14.80;;;10.17;;
10122;SDS011;5101;49.038;8.710;2023-12-28T00:35:22;13.70;;;10.77;;
10122;SDS011;5101;49.038;8.710;2023-12-28T00:37:48;14.77;;;11.63;;
10122;SDS011;5101;49.038;8.710;2023-12-28T00:40:14;21.00;;;13.10;;
10122;SDS011;5101;49.038;8.710;2023-12-28T00:42:39;20.63;;;12.87;;
10122;SDS011;5101;49.038;8.710;2023-12-28T00:45:06;18.03;;;12.10;;
10122;SDS011;5101;49.038;8.710;2023-12-28T00:47:32;19.90;;;12.20;;
10122;SDS011;5101;49.038;8.710;2023-12-28T00:49:57;15.67;;;10.60;;
10122;SDS011;5101;49.038;8.710;2023-12-28T00:52:23;18.03;;;11.57;;
10122;SDS011;5101;49.038;8.710;2023-12-28T00:54:48;15.53;;;10.60;;
10122;SDS011;5101;49.038;8.710;2023-12-28T00:57:14;14.70;;;11.13;;
10122;SDS011;5101;49.038;8.710;2023-12-28T00:59:39;16.70;;;11.13;;
10122;SDS011;5101;49.038;8.710;2023-12-28T01:02:05;14.37;;;10.60;;
10122;SDS011;5101;49.038;8.710;2023-12-28T01:04:30;15.77;;;11.53;;
10122;SDS011;5101;49.038;8.710;2023-12-28T01:06:56;14.50;;;9.73;;
10122;SDS011;5101;49.038;8.710;2023-12-28T01:09:23;15.67;;;10.80;;
10122;SDS011;5101;49.038;8.710;2023-12-28T01:11:49;13.47;;;9.97;;
10122;SDS011;5101;49.038;8.710;2023-12-28T01:14:15;13.87;;;10.07;;
10122;SDS011;5101;49.038;8.710;2023-12-28T01:16:40;12.17;;;9.03;;
10122;SDS011;5101;49.038;8.710;2023-12-28T01:19:06;11.93;;;9.30;;
10122;SDS011;5101;49.038;8.710;2023-12-28T01:21:32;11.93;;;8.70;;
10122;SDS011;5101;49.038;8.710;2023-12-28T01:23:57;13.97;;;8.87;;
10122;SDS011;5101;49.038;8.710;2023-12-28T01:26:23;11.50;;;8.27;;
10122;SDS011;5101;49.038;8.710;2023-12-28T01:28:48;8.73;;;6.90;;
10122;SDS011;5101;49.038;8.710;2023-12-28T01:31:14;11.63;;;7.93;;
10122;SDS011;5101;49.038;8.710;2023-12-28T01:33:39;8.87;;;6.40;;
10122;SDS011;5101;49.038;8.710;2023-12-28T01:36:17;12.63;;;7.13;;
10122;SDS011;5101;49.038;8.710;2023-12-28T01:38:44;9.47;;;6.90;;
10122;SDS011;5101;49.038;8.710;2023-12-28T01:41:10;9.53;;;7.00;;
10122;SDS011;5101;49.038;8.710;2023-12-28T01:43:35;10.63;;;6.87;;
10122;SDS011;5101;49.038;8.710;2023-12-28T01:46:01;8.97;;;6.57;;
10122;SDS011;5101;49.038;8.710;2023-12-28T01:48:27;9.27;;;6.87;;
10122;SDS011;5101;49.038;8.710;2023-12-28T01:50:53;7.93;;;6.10;;
10122;SDS011;5101;49.038;8.710;2023-12-28T01:53:19;9.13;;;6.70;;
10122;SDS011;5101;49.038;8.710;2023-12-28T01:55:45;7.43;;;6.10;;
10122;SDS011;5101;49.038;8.710;2023-12-28T01:58:11;7.87;;;6.50;;
10122;SDS011;5101;49.038;8.710;2023-12-28T02:00:37;8.60;;;6.00;;
10122;SDS011;5101;49.038;8.710;2023-12-28T02:03:04;8.33;;;5.63;;
10122;SDS011;5101;49.038;8.710;2023-12-28T02:05:33;7.30;;;5.47;;
10122;SDS011;5101;49.038;8.710;2023-12-28T02:07:59;6.97;;;5.17;;
10122;SDS011;5101;49.038;8.710;2023-12-28T02:10:25;10.10;;;5.97;;
10122;SDS011;5101;49.038;8.710;2023-12-28T02:12:51;7.50;;;5.50;;
10122;SDS011;5101;49.038;8.710;2023-12-28T02:15:18;7.23;;;5.20;;
10122;SDS011;5101;49.038;8.710;2023-12-28T02:20:20;6.87;;;5.00;;
10122;SDS011;5101;49.038;8.710;2023-12-28T02:22:46;5.37;;;4.23;;
10122;SDS011;5101;49.038;8.710;2023-12-28T02:25:13;4.10;;;3.40;;
10122;SDS011;5101;49.038;8.710;2023-12-28T02:27:42;4.47;;;3.37;;
10122;SDS011;5101;49.038;8.710;2023-12-28T02:30:13;4.17;;;3.57;;
10122;SDS011;5101;49.038;8.710;2023-12-28T02:32:52;3.87;;;3.40;;
10122;SDS011;5101;49.038;8.710;2023-12-28T02:35:27;4.63;;;2.97;;
10122;SDS011;5101;49.038;8.710;2023-12-28T02:38:11;3.53;;;2.87;;
10122;SDS011;5101;49.038;8.710;2023-12-28T02:40:42;4.27;;;2.70;;
10122;SDS011;5101;49.038;8.710;2023-12-28T02:43:10;3.17;;;2.50;;
10122;SDS011;5101;49.038;8.710;2023-12-28T02:45:36;2.93;;;2.07;;
10122;SDS011;5101;49.038;8.710;2023-12-28T02:48:03;3.37;;;2.50;;
10122;SDS011;5101;49.038;8.710;2023-12-28T02:50:29;3.00;;;2.20;;
10122;SDS011;5101;49.038;8.710;2023-12-28T02:52:55;2.67;;;2.20;;
10122;SDS011;5101;49.038;8.710;2023-12-28T02:55:21;2.77;;;2.03;;
10122;SDS011;5101;49.038;8.710;2023-12-28T02:57:48;3.77;;;1.80;;
10122;SDS011;5101;49.038;8.710;2023-12-28T03:00:15;2.23;;;1.80;;
10122;SDS011;5101;49.038;8.710;2023-12-28T03:02:40;2.73;;;1.57;;
10122;SDS011;5101;49.038;8.710;2023-12-28T03:05:06;2.50;;;1.60;;
10122;SDS011;5101;49.038;8.710;2023-12-28T03:07:35;1.67;;;1.47;;
10122;SDS011;5101;49.038;8.710;2023-12-28T03:10:02;2.27;;;1.83;;
10122;SDS011;5101;49.038;8.710;2023-12-28T03:12:28;2.90;;;2.10;;
10122;SDS011;5101;49.038;8.710;2023-12-28T03:14:54;3.70;;;2.30;;
10122;SDS011;5101;49.038;8.710;2023-12-28T03:17:19;2.00;;;1.80;;
10122;SDS011;5101;49.038;8.710;2023-12-28T03:19:45;2.10;;;1.63;;
10122;SDS011;5101;49.038;8.710;2023-12-28T03:22:11;2.93;;;2.17;;
10122;SDS011;5101;49.038;8.710;2023-12-28T03:24:37;2.53;;;2.23;;
10122;SDS011;5101;49.038;8.710;2023-12-28T03:27:03;2.63;;;1.80;;
10122;SDS011;5101;49.038;8.710;2023-12-28T03:29:29;2.67;;;1.80;;
10122;SDS011;5101;49.038;8.710;2023-12-28T03:31:54;1.80;;;1.57;;
10122;SDS011;5101;49.038;8.710;2023-12-28T03:34:20;1.83;;;1.60;;
10122;SDS011;5101;49.038;8.710;2023-12-28T03:36:47;2.20;;;1.47;;
10122;SDS011;5101;49.038;8.710;2023-12-28T03:39:12;2.23;;;1.40;;
10122;SDS011;5101;49.038;8.710;2023-12-28T03:41:37;2.77;;;1.30;;
10122;SDS011;5101;49.038;8.710;2023-12-28T03:44:03;3.23;;;1.53;;
10122;SDS011;5101;49.038;8.710;2023-12-28T03:46:29;1.47;;;1.30;;
10122;SDS011;5101;49.038;8.710;2023-12-28T03:48:54;2.43;;;1.20;;
10122;SDS011;5101;49.038;8.710;2023-12-28T03:51:20;1.15;;;1.00;;
10122;SDS011;5101;49.038;8.710;2023-12-28T03:53:45;2.40;;;1.00;;
10122;SDS011;5101;49.038;8.710;2023-12-28T03:56:18;0.90;;;0.80;;
10122;SDS011;5101;49.038;8.710;2023-12-28T03:58:47;1.30;;;0.90;;
10122;SDS011;5101;49.038;8.710;2023-12-28T04:01:12;4.00;;;1.00;;
10122;SDS011;5101;49.038;8.710;2023-12-28T04:03:38;0.82;;;0.80;;
10122;SDS011;5101;49.038;8.710;2023-12-28T04:06:03;0.98;;;0.80;;
10122;SDS011;5101;49.038;8.710;2023-12-28T04:08:29;0.77;;;0.77;;
10122;SDS011;5101;49.038;8.710;2023-12-28T04:10:54;4.20;;;0.95;;
10122;SDS011;5101;49.038;8.710;2023-12-28T04:13:20;1.95;;;0.88;;
10122;SDS011;5101;49.038;8.710;2023-12-28T04:15:45;1.23;;;0.93;;
10122;SDS011;5101;49.038;8.710;2023-12-28T04:18:11;1.52;;;0.90;;
10122;SDS011;5101;49.038;8.710;2023-12-28T04:20:36;1.80;;;1.45;;
10122;SDS011;5101;49.038;8.710;2023-12-28T04:23:02;2.17;;;1.00;;
10122;SDS011;5101;49.038;8.710;2023-12-28T04:25:27;1.15;;;0.90;;
10122;SDS011;5101;49.038;8.710;2023-12-28T04:27:53;0.98;;;0.75;;
10122;SDS011;5101;49.038;8.710;2023-12-28T04:30:18;2.35;;;0.98;;
10122;SDS011;5101;49.038;8.710;2023-12-28T04:32:44;1.13;;;1.00;;
10122;SDS011;5101;49.038;8.710;2023-12-28T04:35:09;1.15;;;1.00;;
10122;SDS011;5101;49.038;8.710;2023-12-28T04:37:35;1.70;;;1.00;;
10122;SDS011;5101;49.038;8.710;2023-12-28T04:40:01;1.02;;;0.93;;
10122;SDS011;5101;49.038;8.710;2023-12-28T04:42:28;2.33;;;1.10;;
10122;SDS011;5101;49.038;8.710;2023-12-28T04:44:54;1.55;;;1.30;;
10122;SDS011;5101;49.038;8.710;2023-12-28T04:47:19;1.83;;;0.90;;
10122;SDS011;5101;49.038;8.710;2023-12-28T04:49:45;3.58;;;1.23;;
10122;SDS011;5101;49.038;8.710;2023-12-28T04:52:10;1.45;;;1.33;;
10122;SDS011;5101;49.038;8.710;2023-12-28T04:54:36;1.60;;;1.10;;
10122;SDS011;5101;49.038;8.710;2023-12-28T04:57:01;1.13;;;1.10;;
10122;SDS011;5101;49.038;8.710;2023-12-28T04:59:27;1.35;;;1.25;;
10122;SDS011;5101;49.038;8.710;2023-12-28T05:01:52;1.88;;;1.25;;
10122;SDS011;5101;49.038;8.710;2023-12-28T05:04:18;1.60;;;1.13;;
10122;SDS011;5101;49.038;8.710;2023-12-28T05:06:43;1.17;;;1.08;;
10122;SDS011;5101;49.038;8.710;2023-12-28T05:09:09;1.13;;;1.02;;
10122;SDS011;5101;49.038;8.710;2023-12-28T05:11:34;1.20;;;1.10;;
10122;SDS011;5101;49.038;8.710;2023-12-28T05:14:00;1.95;;;1.15;;
10122;SDS011;5101;49.038;8.710;2023-12-28T05:16:25;1.80;;;1.60;;
10122;SDS011;5101;49.038;8.710;2023-12-28T05:18:51;3.35;;;1.88;;
10122;SDS011;5101;49.038;8.710;2023-12-28T05:21:16;3.55;;;1.80;;
10122;SDS011;5101;49.038;8.710;2023-12-28T05:23:42;1.42;;;0.90;;
10122;SDS011;5101;49.038;8.710;2023-12-28T05:26:07;1.40;;;1.08;;
10122;SDS011;5101;49.038;8.710;2023-12-28T05:28:33;1.10;;;1.00;;
10122;SDS011;5101;49.038;8.710;2023-12-28T05:30:58;1.42;;;0.90;;
10122;SDS011;5101;49.038;8.710;2023-12-28T05:33:24;1.73;;;1.00;;
10122;SDS011;5101;49.038;8.710;2023-12-28T05:35:50;0.93;;;0.90;;
10122;SDS011;5101;49.038;8.710;2023-12-28T05:38:16;1.10;;;1.00;;
10122;SDS011;5101;49.038;8.710;2023-12-28T05:40:42;1.20;;;1.00;;
10122;SDS011;5101;49.038;8.710;2023-12-28T05:43:09;1.10;;;1.00;;
10122;SDS011;5101;49.038;8.710;2023-12-28T05:45:35;1.50;;;1.23;;
10122;SDS011;5101;49.038;8.710;2023-12-28T05:48:00;1.25;;;1.13;;
10122;SDS011;5101;49.038;8.710;2023-12-28T05:50:26;1.33;;;0.75;;
10122;SDS011;5101;49.038;8.710;2023-12-28T05:52:51;1.70;;;1.10;;
10122;SDS011;5101;49.038;8.710;2023-12-28T05:55:17;1.25;;;1.00;;
10122;SDS011;5101;49.038;8.710;2023-12-28T05:57:42;1.45;;;0.90;;
10122;SDS011;5101;49.038;8.710;2023-12-28T06:00:08;1.25;;;0.95;;
10122;SDS011;5101;49.038;8.710;2023-12-28T06:02:34;1.33;;;1.00;;
10122;SDS011;5101;49.038;8.710;2023-12-28T06:05:00;1.35;;;1.25;;
10122;SDS011;5101;49.038;8.710;2023-12-28T06:07:26;1.33;;;1.23;;
10122;SDS011;5101;49.038;8.710;2023-12-28T06:09:51;1.55;;;1.35;;
10122;SDS011;5101;49.038;8.710;2023-12-28T06:12:17;1.25;;;1.10;;
10122;SDS011;5101;49.038;8.710;2023-12-28T06:14:42;1.92;;;1.27;;
10122;SDS011;5101;49.038;8.710;2023-12-28T06:17:08;1.17;;;1.08;;
10122;SDS011;5101;49.038;8.710;2023-12-28T06:19:33;1.67;;;1.20;;
10122;SDS011;5101;49.038;8.710;2023-12-28T06:21:59;1.17;;;1.08;;
10122;SDS011;5101;49.038;8.710;2023-12-28T06:24:24;2.15;;;1.38;;
10122;SDS011;5101;49.038;8.710;2023-12-28T06:26:50;1.35;;;1.05;;
10122;SDS011;5101;49.038;8.710;2023-12-28T06:29:15;1.15;;;0.95;;
10122;SDS011;5101;49.038;8.710;2023-12-28T06:31:41;1.10;;;1.00;;
10122;SDS011;5101;49.038;8.710;2023-12-28T06:34:07;1.25;;;0.90;;
10122;SDS011;5101;49.038;8.710;2023-12-28T06:36:32;2.47;;;1.10;;
10122;SDS011;5101;49.038;8.710;2023-12-28T06:38:58;1.83;;;1.50;;
10122;SDS011;5101;49.038;8.710;2023-12-28T06:41:24;1.60;;;1.48;;
10122;SDS011;5101;49.038;8.710;2023-12-28T06:43:51;1.88;;;1.30;;
10122;SDS011;5101;49.038;8.710;2023-12-28T06:46:16;1.83;;;1.25;;
10122;SDS011;5101;49.038;8.710;2023-12-28T06:48:43;2.63;;;1.52;;
10122;SDS011;5101;49.038;8.710;2023-12-28T06:51:09;1.58;;;1.33;;
10122;SDS011;5101;49.038;8.710;2023-12-28T06:53:35;1.42;;;1.30;;
10122;SDS011;5101;49.038;8.710;2023-12-28T06:56:00;2.60;;;1.48;;
10122;SDS011;5101;49.038;8.710;2023-12-28T06:58:26;2.33;;;1.25;;
10122;SDS011;5101;49.038;8.710;2023-12-28T07:00:51;1.77;;;1.50;;
10122;SDS011;5101;49.038;8.710;2023-12-28T07:03:17;2.15;;;1.50;;
10122;SDS011;5101;49.038;8.710;2023-12-28T07:05:42;1.85;;;1.40;;
10122;SDS011;5101;49.038;8.710;2023-12-28T07:08:08;1.92;;;1.70;;
10122;SDS011;5101;49.038;8.710;2023-12-28T07:10:33;1.77;;;1.50;;
10122;SDS011;5101;49.038;8.710;2023-12-28T07:12:59;1.58;;;1.40;;
10122;SDS011;5101;49.038;8.710;2023-12-28T07:15:24;2.95;;;1.50;;
10122;SDS011;5101;49.038;8.710;2023-12-28T07:17:50;1.60;;;1.50;;
10122;SDS011;5101;49.038;8.710;2023-12-28T07:20:15;2.10;;;1.40;;
10122;SDS011;5101;49.038;8.710;2023-12-28T07:22:41;1.92;;;1.70;;
10122;SDS011;5101;49.038;8.710;2023-12-28T07:25:07;5.20;;;4.70;;
10122;SDS011;5101;49.038;8.710;2023-12-28T07:27:33;3.55;;;2.70;;
10122;SDS011;5101;49.038;8.710;2023-12-28T07:30:00;4.18;;;2.50;;
10122;SDS011;5101;49.038;8.710;2023-12-28T07:32:25;4.05;;;3.65;;
10122;SDS011;5101;49.038;8.710;2023-12-28T07:34:52;3.03;;;2.30;;
10122;SDS011;5101;49.038;8.710;2023-12-28T07:39:46;3.13;;;2.33;;
10122;SDS011;5101;49.038;8.710;2023-12-28T07:42:12;5.60;;;3.53;;
10122;SDS011;5101;49.038;8.710;2023-12-28T07:44:38;8.07;;;6.90;;
10122;SDS011;5101;49.038;8.710;2023-12-28T07:47:03;8.75;;;5.75;;
10122;SDS011;5101;49.038;8.710;2023-12-28T07:49:30;4.57;;;4.15;;
10122;SDS011;5101;49.038;8.710;2023-12-28T07:51:56;5.70;;;4.55;;
10122;SDS011;5101;49.038;8.710;2023-12-28T07:54:22;4.38;;;3.15;;
10122;SDS011;5101;49.038;8.710;2023-12-28T07:56:47;2.88;;;2.63;;
10122;SDS011;5101;49.038;8.710;2023-12-28T07:59:13;3.05;;;2.83;;
10122;SDS011;5101;49.038;8.710;2023-12-28T08:01:38;3.65;;;3.03;;
10122;SDS011;5101;49.038;8.710;2023-12-28T08:04:04;4.43;;;2.85;;
10122;SDS011;5101;49.038;8.710;2023-12-28T08:06:29;5.40;;;3.20;;
10122;SDS011;5101;49.038;8.710;2023-12-28T08:08:58;3.58;;;3.10;;
10122;SDS011;5101;49.038;8.710;2023-12-28T08:11:26;3.55;;;3.00;;
10122;SDS011;5101;49.038;8.710;2023-12-28T08:13:52;3.60;;;3.28;;
10122;SDS011;5101;49.038;8.710;2023-12-28T08:16:17;3.97;;;3.45;;
10122;SDS011;5101;49.038;8.710;2023-12-28T08:18:42;7.57;;;2.88;;
10122;SDS011;5101;49.038;8.710;2023-12-28T08:21:08;4.13;;;2.72;;
10122;SDS011;5101;49.038;8.710;2023-12-28T08:23:33;5.25;;;1.90;;
10122;SDS011;5101;49.038;8.710;2023-12-28T08:25:59;2.17;;;1.98;;
10122;SDS011;5101;49.038;8.710;2023-12-28T08:28:25;1.73;;;1.42;;
10122;SDS011;5101;49.038;8.710;2023-12-28T08:30:50;4.20;;;1.70;;
10122;SDS011;5101;49.038;8.710;2023-12-28T08:33:15;1.52;;;1.42;;
10122;SDS011;5101;49.038;8.710;2023-12-28T08:35:41;1.75;;;1.58;;
10122;SDS011;5101;49.038;8.710;2023-12-28T08:38:06;1.90;;;1.52;;
10122;SDS011;5101;49.038;8.710;2023-12-28T08:40:33;3.03;;;1.88;;
10122;SDS011;5101;49.038;8.710;2023-12-28T08:42:58;2.00;;;1.75;;
10122;SDS011;5101;49.038;8.710;2023-12-28T08:45:24;3.30;;;1.60;;
10122;SDS011;5101;49.038;8.710;2023-12-28T08:47:49;3.42;;;1.63;;
10122;SDS011;5101;49.038;8.710;2023-12-28T08:50:15;2.42;;;1.55;;
10122;SDS011;5101;49.038;8.710;2023-12-28T08:52:40;3.40;;;1.30;;
10122;SDS011;5101;49.038;8.710;2023-12-28T08:55:06;3.35;;;1.30;;
10122;SDS011;5101;49.038;8.710;2023-12-28T08:57:32;1.55;;;1.45;;
10122;SDS011;5101;49.038;8.710;2023-12-28T08:59:58;1.77;;;1.63;;
10122;SDS011;5101;49.038;8.710;2023-12-28T09:02:27;2.15;;;1.90;;
10122;SDS011;5101;49.038;8.710;2023-12-28T09:04:53;3.95;;;2.65;;
10122;SDS011;5101;49.038;8.710;2023-12-28T09:07:19;3.50;;;2.88;;
10122;SDS011;5101;49.038;8.710;2023-12-28T09:09:44;4.07;;;2.92;;
10122;SDS011;5101;49.038;8.710;2023-12-28T09:12:10;2.40;;;2.20;;
10122;SDS011;5101;49.038;8.710;2023-12-28T09:14:36;3.97;;;2.20;;
10122;SDS011;5101;49.038;8.710;2023-12-28T09:17:02;3.25;;;1.98;;
10122;SDS011;5101;49.038;8.710;2023-12-28T09:19:27;3.05;;;2.25;;
10122;SDS011;5101;49.038;8.710;2023-12-28T09:21:53;2.38;;;2.15;;
10122;SDS011;5101;49.038;8.710;2023-12-28T09:24:18;4.32;;;2.58;;
10122;SDS011;5101;49.038;8.710;2023-12-28T09:26:44;4.28;;;2.63;;
10122;SDS011;5101;49.038;8.710;2023-12-28T09:29:10;3.33;;;2.22;;
10122;SDS011;5101;49.038;8.710;2023-12-28T09:31:35;2.85;;;2.00;;
10122;SDS011;5101;49.038;8.710;2023-12-28T09:34:01;3.22;;;2.00;;
10122;SDS011;5101;49.038;8.710;2023-12-28T09:36:29;2.63;;;1.73;;
10122;SDS011;5101;49.038;8.710;2023-12-28T09:38:55;3.70;;;1.70;;
10122;SDS011;5101;49.038;8.710;2023-12-28T09:41:21;3.58;;;1.85;;
10122;SDS011;5101;49.038;8.710;2023-12-28T09:43:53;2.58;;;1.70;;
10122;SDS011;5101;49.038;8.710;2023-12-28T09:46:22;1.58;;;1.48;;
10122;SDS011;5101;49.038;8.710;2023-12-28T09:48:47;2.55;;;1.75;;
10122;SDS011;5101;49.038;8.710;2023-12-28T09:51:13;2.50;;;1.65;;
10122;SDS011;5101;49.038;8.710;2023-12-28T09:53:39;2.67;;;1.77;;
10122;SDS011;5101;49.038;8.710;2023-12-28T09:56:04;2.35;;;1.85;;
10122;SDS011;5101;49.038;8.710;2023-12-28T09:58:30;1.40;;;1.30;;
10122;SDS011;5101;49.038;8.710;2023-12-28T10:01:00;1.65;;;1.55;;
10122;SDS011;5101;49.038;8.710;2023-12-28T10:03:28;1.92;;;1.65;;
10122;SDS011;5101;49.038;8.710;2023-12-28T10:05:53;2.00;;;1.33;;
10122;SDS011;5101;49.038;8.710;2023-12-28T10:08:19;2.70;;;1.50;;
10122;SDS011;5101;49.038;8.710;2023-12-28T10:10:44;3.15;;;1.40;;
10122;SDS011;5101;49.038;8.710;2023-12-28T10:13:16;1.02;;;1.02;;
10122;SDS011;5101;49.038;8.710;2023-12-28T10:15:42;1.80;;;1.55;;
10122;SDS011;5101;49.038;8.710;2023-12-28T10:18:08;3.45;;;1.65;;
10122;SDS011;5101;49.038;8.710;2023-12-28T10:20:34;3.53;;;1.40;;
10122;SDS011;5101;49.038;8.710;2023-12-28T10:22:59;3.45;;;1.48;;
10122;SDS011;5101;49.038;8.710;2023-12-28T10:25:26;1.92;;;1.50;;
10122;SDS011;5101;49.038;8.710;2023-12-28T10:27:52;2.78;;;1.30;;
10122;SDS011;5101;49.038;8.710;2023-12-28T10:30:19;1.73;;;1.30;;
10122;SDS011;5101;49.038;8.710;2023-12-28T10:32:45;1.92;;;1.45;;
10122;SDS011;5101;49.038;8.710;2023-12-28T10:35:11;1.55;;;1.20;;
10122;SDS011;5101;49.038;8.710;2023-12-28T10:37:39;1.52;;;1.42;;
10122;SDS011;5101;49.038;8.710;2023-12-28T10:40:12;1.88;;;1.48;;
10122;SDS011;5101;49.038;8.710;2023-12-28T10:42:46;2.75;;;1.40;;
10122;SDS011;5101;49.038;8.710;2023-12-28T10:45:18;1.73;;;1.48;;
10122;SDS011;5101;49.038;8.710;2023-12-28T10:47:47;1.50;;;1.38;;
10122;SDS011;5101;49.038;8.710;2023-12-28T10:50:20;4.38;;;1.60;;
10122;SDS011;5101;49.038;8.710;2023-12-28T10:52:50;2.20;;;1.50;;
10122;SDS011;5101;49.038;8.710;2023-12-28T10:55:34;1.83;;;1.45;;
10122;SDS011;5101;49.038;8.710;2023-12-28T10:58:05;3.67;;;1.83;;
10122;SDS011;5101;49.038;8.710;2023-12-28T11:00:38;2.55;;;1.70;;
10122;SDS011;5101;49.038;8.710;2023-12-28T11:03:09;2.53;;;2.25;;
10122;SDS011;5101;49.038;8.710;2023-12-28T11:05:36;2.80;;;2.33;;
10122;SDS011;5101;49.038;8.710;2023-12-28T11:08:05;2.92;;;2.72;;
10122;SDS011;5101;49.038;8.710;2023-12-28T11:10:32;3.17;;;2.88;;
10122;SDS011;5101;49.038;8.710;2023-12-28T11:12:59;3.28;;;2.95;;
10122;SDS011;5101;49.038;8.710;2023-12-28T11:15:26;2.30;;;2.10;;
10122;SDS011;5101;49.038;8.710;2023-12-28T11:17:53;4.35;;;1.80;;
10122;SDS011;5101;49.038;8.710;2023-12-28T11:20:18;2.15;;;1.60;;
10122;SDS011;5101;49.038;8.710;2023-12-28T11:22:44;2.53;;;1.95;;
10122;SDS011;5101;49.038;8.710;2023-12-28T11:25:17;1.92;;;1.27;;
10122;SDS011;5101;49.038;8.710;2023-12-28T11:27:44;2.67;;;1.90;;
10122;SDS011;5101;49.038;8.710;2023-12-28T11:30:11;3.95;;;1.48;;
10122;SDS011;5101;49.038;8.710;2023-12-28T11:32:38;1.48;;;1.38;;
10122;SDS011;5101;49.038;8.710;2023-12-28T11:35:07;1.85;;;1.30;;
10122;SDS011;5101;49.038;8.710;2023-12-28T11:37:35;2.25;;;1.50;;
10122;SDS011;5101;49.038;8.710;2023-12-28T11:40:13;4.50;;;1.50;;
10122;SDS011;5101;49.038;8.710;2023-12-28T11:42:51;1.58;;;1.48;;
10122;SDS011;5101;49.038;8.710;2023-12-28T11:45:18;2.63;;;1.80;;
10122;SDS011;5101;49.038;8.710;2023-12-28T11:48:00;4.15;;;2.85;;
10122;SDS011;5101;49.038;8.710;2023-12-28T11:50:26;3.15;;;2.28;;
10122;SDS011;5101;49.038;8.710;2023-12-28T11:52:52;2.15;;;2.05;;
10122;SDS011;5101;49.038;8.710;2023-12-28T11:55:23;2.03;;;1.77;;
10122;SDS011;5101;49.038;8.710;2023-12-28T11:57:49;2.22;;;1.55;;
10122;SDS011;5101;49.038;8.710;2023-12-28T12:00:15;2.05;;;1.50;;
10122;SDS011;5101;49.038;8.710;2023-12-28T12:02:43;2.03;;;1.65;;
10122;SDS011;5101;49.038;8.710;2023-12-28T12:05:10;1.73;;;1.63;;
10122;SDS011;5101;49.038;8.710;2023-12-28T12:07:36;2.33;;;1.90;;
10122;SDS011;5101;49.038;8.710;2023-12-28T12:10:02;4.45;;;1.50;;
10122;SDS011;5101;49.038;8.710;2023-12-28T12:12:28;1.77;;;1.67;;
10122;SDS011;5101;49.038;8.710;2023-12-28T12:14:54;1.88;;;1.67;;
10122;SDS011;5101;49.038;8.710;2023-12-28T12:17:21;2.25;;;1.60;;
10122;SDS011;5101;49.038;8.710;2023-12-28T12:19:47;1.65;;;1.52;;
10122;SDS011;5101;49.038;8.710;2023-12-28T12:22:15;6.20;;;1.70;;
10122;SDS011;5101;49.038;8.710;2023-12-28T12:24:41;1.60;;;1.50;;
10122;SDS011;5101;49.038;8.710;2023-12-28T12:27:09;2.00;;;1.30;;
10122;SDS011;5101;49.038;8.710;2023-12-28T12:29:34;2.08;;;1.50;;
10122;SDS011;5101;49.038;8.710;2023-12-28T12:32:00;2.55;;;1.48;;
10122;SDS011;5101;49.038;8.710;2023-12-28T12:34:28;2.10;;;1.65;;
10122;SDS011;5101;49.038;8.710;2023-12-28T12:36:53;1.85;;;1.75;;
10122;SDS011;5101;49.038;8.710;2023-12-28T12:39:19;2.97;;;1.85;;
10122;SDS011;5101;49.038;8.710;2023-12-28T12:41:48;2.45;;;1.50;;
10122;SDS011;5101;49.038;8.710;2023-12-28T12:44:14;3.25;;;1.67;;
10122;SDS011;5101;49.038;8.710;2023-12-28T12:46:41;1.70;;;1.60;;
10122;SDS011;5101;49.038;8.710;2023-12-28T12:49:07;1.73;;;1.60;;
10122;SDS011;5101;49.038;8.710;2023-12-28T12:51:33;2.33;;;1.55;;
10122;SDS011;5101;49.038;8.710;2023-12-28T12:53:59;3.50;;;1.60;;
10122;SDS011;5101;49.038;8.710;2023-12-28T12:56:25;2.25;;;1.58;;
10122;SDS011;5101;49.038;8.710;2023-12-28T12:58:52;1.52;;;1.42;;
10122;SDS011;5101;49.038;8.710;2023-12-28T13:01:18;3.10;;;1.65;;
10122;SDS011;5101;49.038;8.710;2023-12-28T13:03:45;4.57;;;1.90;;
10122;SDS011;5101;49.038;8.710;2023-12-28T13:06:10;2.40;;;1.65;;
10122;SDS011;5101;49.038;8.710;2023-12-28T13:08:36;2.03;;;1.63;;
10122;SDS011;5101;49.038;8.710;2023-12-28T13:11:01;2.78;;;1.70;;
10122;SDS011;5101;49.038;8.710;2023-12-28T13:13:27;2.20;;;1.70;;
10122;SDS011;5101;49.038;8.710;2023-12-28T13:15:53;2.38;;;1.83;;
10122;SDS011;5101;49.038;8.710;2023-12-28T13:18:18;2.08;;;1.40;;
10122;SDS011;5101;49.038;8.710;2023-12-28T13:20:43;2.60;;;1.20;;
10122;SDS011;5101;49.038;8.710;2023-12-28T13:23:10;1.60;;;1.30;;
10122;SDS011;5101;49.038;8.710;2023-12-28T13:25:36;2.17;;;1.15;;
10122;SDS011;5101;49.038;8.710;2023-12-28T13:28:02;1.13;;;1.02;;
10122;SDS011;5101;49.038;8.710;2023-12-28T13:30:28;1.20;;;1.10;;
10122;SDS011;5101;49.038;8.710;2023-12-28T13:32:54;1.83;;;1.08;;
10122;SDS011;5101;49.038;8.710;2023-12-28T13:35:22;1.67;;;1.42;;
10122;SDS011;5101;49.038;8.710;2023-12-28T13:37:48;1.75;;;1.20;;
10122;SDS011;5101;49.038;8.710;2023-12-28T13:40:14;1.50;;;1.00;;
10122;SDS011;5101;49.038;8.710;2023-12-28T13:42:40;2.78;;;1.77;;
10122;SDS011;5101;49.038;8.710;2023-12-28T13:45:06;2.28;;;1.13;;
10122;SDS011;5101;49.038;8.710;2023-12-28T13:47:32;1.65;;;1.00;;
10122;SDS011;5101;49.038;8.710;2023-12-28T13:49:58;1.48;;;1.25;;
10122;SDS011;5101;49.038;8.710;2023-12-28T13:52:23;1.25;;;1.10;;
10122;SDS011;5101;49.038;8.710;2023-12-28T13:54:49;3.45;;;1.13;;
10122;SDS011;5101;49.038;8.710;2023-12-28T13:57:14;1.90;;;1.30;;
10122;SDS011;5101;49.038;8.710;2023-12-28T13:59:40;1.17;;;1.10;;
10122;SDS011;5101;49.038;8.710;2023-12-28T14:02:05;1.65;;;1.08;;
10122;SDS011;5101;49.038;8.710;2023-12-28T14:04:31;2.05;;;1.10;;
10122;SDS011;5101;49.038;8.710;2023-12-28T14:06:56;4.43;;;1.15;;
10122;SDS011;5101;49.038;8.710;2023-12-28T14:09:22;1.45;;;1.30;;
10122;SDS011;5101;49.038;8.710;2023-12-28T14:11:47;1.35;;;1.00;;
10122;SDS011;5101;49.038;8.710;2023-12-28T14:14:13;1.35;;;1.20;;
10122;SDS011;5101;49.038;8.710;2023-12-28T14:16:39;1.58;;;1.40;;
10122;SDS011;5101;49.038;8.710;2023-12-28T14:19:05;1.60;;;1.25;;
10122;SDS011;5101;49.038;8.710;2023-12-28T14:21:34;1.83;;;1.38;;
10122;SDS011;5101;49.038;8.710;2023-12-28T14:24:01;3.15;;;2.03;;
10122;SDS011;5101;49.038;8.710;2023-12-28T14:26:27;1.70;;;1.42;;
10122;SDS011;5101;49.038;8.710;2023-12-28T14:28:53;1.23;;;1.10;;
10122;SDS011;5101;49.038;8.710;2023-12-28T14:31:19;2.08;;;1.30;;
10122;SDS011;5101;49.038;8.710;2023-12-28T14:33:45;1.98;;;1.30;;
10122;SDS011;5101;49.038;8.710;2023-12-28T14:36:15;2.08;;;1.63;;
10122;SDS011;5101;49.038;8.710;2023-12-28T14:38:48;1.75;;;1.52;;
10122;SDS011;5101;49.038;8.710;2023-12-28T14:41:13;3.70;;;1.67;;
10122;SDS011;5101;49.038;8.710;2023-12-28T14:43:39;1.95;;;1.60;;
10122;SDS011;5101;49.038;8.710;2023-12-28T14:46:04;2.40;;;1.60;;
10122;SDS011;5101;49.038;8.710;2023-12-28T14:48:30;2.47;;;1.60;;
10122;SDS011;5101;49.038;8.710;2023-12-28T14:50:56;1.70;;;1.55;;
10122;SDS011;5101;49.038;8.710;2023-12-28T14:53:22;2.60;;;2.05;;
10122;SDS011;5101;49.038;8.710;2023-12-28T14:55:50;3.13;;;2.00;;
10122;SDS011;5101;49.038;8.710;2023-12-28T14:58:16;3.20;;;2.13;;